Hilshire Village, Texas
Current Conditions -  °F | °C
As of 3:35 PM on Saturday 25 Oct 2014 (Local Time) from KMCJ Reporting Station
Clear Clear  
Wind Chill: 84°   Ceiling: Unl
Heat Index: 84°   Visibility: NA
Dew Point: 50°   Wind: 0mph
Humidity: 30%   Direction: NA
Pressure: 30.07"   Gusts: NA
Location:  29.7972°N, 95.4933°W
Report Text: KMCJ 252035Z AUTO 00000KT CLR 29/10 A3007 RMK AO1
Loading
Personal Weather Stations






























Interactive Weather Map
Tropical Storm Tracking
New forecast layout! Learn more

10-Day Weather Forecast

Advertisements
Track Severe Weather on mobile